Time;durP1;ratioP1;P1;durP2;ratioP2;P2;SDS_P1;SDS_P2;PMS_P1;PMS_P2;Temp;Humidity;BMP_temperature;BMP_pressure;BME280_temperature;BME280_humidity;BME280_pressure;Samples;Min_cycle;Max_cycle;Signal;HPM_P1;HPM_P2
2023/09/20 00:01:40;;;;;;;;;;;17.10;58.80;;;12.94;100.00;95543.22;5012931;28;19909;-52
2023/09/20 00:04:07;;;;;;;;;;;17.10;58.70;;;12.93;100.00;95541.59;5013008;28;19937;-51
2023/09/20 00:06:33;;;;;;;;;;;17.10;58.80;;;12.91;100.00;95537.63;5012619;28;19909;-50
2023/09/20 00:09:00;;;;;;;;;;;17.10;58.70;;;12.86;100.00;95535.78;5013074;28;20167;-53
2023/09/20 00:11:26;;;;;;;;;;;17.10;58.80;;;12.83;100.00;95530.22;5003308;28;19950;-51
2023/09/20 00:13:53;;;;;;;;;;;17.10;58.80;;;12.76;100.00;95530.53;5013076;28;20363;-49
2023/09/20 00:16:19;;;;;;;;;;;17.00;58.80;;;12.72;100.00;95529.47;5013074;28;20364;-49
2023/09/20 00:18:45;;;;;;;;;;;16.90;58.80;;;12.67;100.00;95522.31;5007403;28;19949;-50
2023/09/20 00:21:11;;;;;;;;;;;16.90;58.80;;;12.64;100.00;95516.72;5013055;28;20656;-50
2023/09/20 00:23:37;;;;;;;;;;;16.90;58.90;;;12.60;100.00;95521.84;5011142;28;20372;-50
2023/09/20 00:26:03;;;;;;;;;;;16.80;58.90;;;12.56;100.00;95520.78;5013090;28;19917;-52
2023/09/20 00:28:31;;;;;;;;;;;16.80;59.00;;;12.52;100.00;95516.28;5012829;28;19944;-49
2023/09/20 00:30:57;;;;;;;;;;;16.80;59.00;;;12.46;100.00;95513.63;5007405;28;19951;-49
2023/09/20 00:33:24;;;;;;;;;;;16.70;59.10;;;12.39;100.00;95512.38;5011888;28;20042;-48
2023/09/20 00:35:50;;;;;;;;;;;16.70;59.10;;;12.34;100.00;95515.84;5012479;28;19966;-49
2023/09/20 00:38:16;;;;;;;;;;;16.60;59.10;;;12.29;100.00;95507.09;5014203;28;20292;-47
2023/09/20 00:40:43;;;;;;;;;;;16.60;59.20;;;12.24;100.00;95513.25;5004460;28;19939;-50
2023/09/20 00:43:11;;;;;;;;;;;16.50;59.20;;;12.18;100.00;95509.81;5012088;28;19917;-49
2023/09/20 00:45:40;;;;;;;;;;;16.50;59.20;;;12.15;100.00;95512.22;5011116;28;19948;-50
2023/09/20 00:48:12;;;;;;;;;;;16.40;59.30;;;12.08;100.00;95507.19;5010882;28;19919;-51
2023/09/20 00:50:41;;;;;;;;;;;16.40;59.30;;;12.06;100.00;95506.66;5011395;28;19995;-48
2023/09/20 00:53:12;;;;;;;;;;;16.40;59.40;;;12.04;100.00;95508.81;5011320;28;19917;-47
2023/09/20 00:55:39;;;;;;;;;;;16.30;59.40;;;11.97;100.00;95502.97;5012573;28;19909;-47
2023/09/20 00:58:14;;;;;;;;;;;16.30;59.40;;;11.95;100.00;95507.81;5010708;28;19913;-47
2023/09/20 01:00:43;;;;;;;;;;;16.30;59.60;;;11.93;100.00;95502.72;5014400;28;19909;-47
2023/09/20 01:03:11;;;;;;;;;;;16.20;59.50;;;11.90;100.00;95507.81;5010377;28;19932;-47
2023/09/20 01:05:39;;;;;;;;;;;16.20;59.60;;;11.88;100.00;95507.31;5015969;28;19920;-49
2023/09/20 01:08:06;;;;;;;;;;;16.20;59.60;;;11.85;100.00;95510.53;5011886;28;19955;-48
2023/09/20 01:10:36;;;;;;;;;;;16.10;59.60;;;11.84;100.00;95509.69;5012426;28;19912;-49
2023/09/20 01:13:09;;;;;;;;;;;16.10;59.70;;;11.80;100.00;95498.75;5011820;28;19917;-47
2023/09/20 01:15:37;;;;;;;;;;;16.10;59.70;;;11.77;100.00;95501.19;5009390;28;19909;-48
2023/09/20 01:18:04;;;;;;;;;;;16.00;59.70;;;11.72;100.00;95507.34;5005288;28;20276;-47
2023/09/20 01:20:37;;;;;;;;;;;16.00;59.80;;;11.69;100.00;95499.06;5011913;28;19913;-47
2023/09/20 01:23:03;;;;;;;;;;;16.00;59.80;;;11.55;100.00;95498.84;5010656;28;19917;-47
2023/09/20 01:25:41;;;;;;;;;;;15.90;59.80;;;11.57;100.00;95496.72;5011861;28;19909;-46
2023/09/20 01:28:09;;;;;;;;;;;15.90;59.80;;;11.59;100.00;95486.56;5011679;28;19916;-47
2023/09/20 01:30:41;;;;;;;;;;;15.90;59.90;;;11.53;100.00;95496.47;5010413;28;19925;-46
2023/09/20 01:33:08;;;;;;;;;;;15.90;59.90;;;11.43;100.00;95488.50;5011121;28;19913;-48
2023/09/20 01:35:37;;;;;;;;;;;15.80;60.00;;;11.47;100.00;95499.41;5005917;28;19916;-50
2023/09/20 01:38:06;;;;;;;;;;;15.80;60.00;;;11.45;100.00;95493.56;5006658;28;19925;-47
2023/09/20 01:40:35;;;;;;;;;;;15.80;60.00;;;11.42;100.00;95488.78;5010403;28;20004;-49
2023/09/20 01:43:06;;;;;;;;;;;15.70;60.80;;;11.35;100.00;95489.84;5010869;28;20019;-47
2023/09/20 01:45:36;;;;;;;;;;;15.70;60.10;;;11.32;100.00;95485.06;5012377;28;19908;-52
2023/09/20 01:48:08;;;;;;;;;;;15.70;60.20;;;11.27;100.00;95479.75;5005912;28;19917;-52
2023/09/20 01:50:35;;;;;;;;;;;15.60;60.10;;;11.24;100.00;95472.28;5010695;28;19916;-51
2023/09/20 01:53:05;;;;;;;;;;;15.60;60.20;;;11.21;100.00;95475.50;5009523;28;19970;-52
2023/09/20 01:55:31;;;;;;;;;;;15.50;60.30;;;11.20;100.00;95467.78;5011391;28;19913;-51
2023/09/20 01:58:12;;;;;;;;;;;15.50;60.40;;;11.17;100.00;95474.44;5012643;28;19917;-51
2023/09/20 02:00:42;;;;;;;;;;;15.50;60.40;;;11.16;100.00;95467.53;5005712;28;19910;-51
2023/09/20 02:03:16;;;;;;;;;;;15.50;60.60;;;11.11;100.00;95460.31;5010282;28;20283;-51
2023/09/20 02:05:44;;;;;;;;;;;15.50;60.60;;;11.10;100.00;95463.28;5009237;28;19913;-51
2023/09/20 02:08:10;;;;;;;;;;;15.40;60.60;;;11.08;100.00;95462.72;5010407;28;20065;-48
2023/09/20 02:10:38;;;;;;;;;;;15.40;60.70;;;11.03;100.00;95457.41;5011121;28;20459;-48
2023/09/20 02:13:04;;;;;;;;;;;15.30;60.60;;;11.02;100.00;95458.47;5008634;28;20380;-48
2023/09/20 02:15:34;;;;;;;;;;;15.30;60.70;;;11.00;100.00;95457.94;5010849;28;19909;-50
2023/09/20 02:18:08;;;;;;;;;;;15.30;60.70;;;11.01;100.00;95454.22;5009879;28;19909;-51
2023/09/20 02:20:37;;;;;;;;;;;15.30;60.80;;;11.01;100.00;95448.91;5009538;28;19962;-53
2023/09/20 02:23:06;;;;;;;;;;;15.30;60.90;;;11.00;100.00;95449.94;5006132;28;19949;-48
2023/09/20 02:25:32;;;;;;;;;;;15.30;61.00;;;10.97;100.00;95442.47;5009390;28;19958;-50
2023/09/20 02:27:59;;;;;;;;;;;15.20;61.00;;;10.97;100.00;95450.47;5010804;28;19909;-48
2023/09/20 02:30:35;;;;;;;;;;;15.20;61.10;;;10.95;100.00;95460.63;5009863;28;19944;-52
2023/09/20 02:33:05;;;;;;;;;;;15.20;61.10;;;10.93;100.00;95468.88;5010086;28;19986;-47
2023/09/20 02:35:33;;;;;;;;;;;15.20;61.20;;;10.90;100.00;95469.41;5009973;28;19908;-53
2023/09/20 02:38:00;;;;;;;;;;;15.20;61.20;;;10.90;100.00;95461.41;5010333;28;19913;-49
2023/09/20 02:40:27;;;;;;;;;;;15.20;62.10;;;10.91;100.00;95459.59;5010980;28;19909;-48
2023/09/20 02:43:00;;;;;;;;;;;15.20;61.30;;;10.88;100.00;95453.72;5009017;28;19921;-49
2023/09/20 02:45:32;;;;;;;;;;;15.10;61.20;;;10.85;100.00;95450.78;5010574;28;19955;-52
2023/09/20 02:47:58;;;;;;;;;;;15.20;61.30;;;10.82;100.00;95456.66;5013886;28;19948;-46
2023/09/20 02:50:25;;;;;;;;;;;15.10;61.30;;;10.81;100.00;95455.03;5010563;28;19909;-48
2023/09/20 02:52:56;;;;;;;;;;;15.10;61.30;;;10.75;100.00;95459.59;5008942;28;19991;-46
2023/09/20 02:55:23;;;;;;;;;;;15.10;61.30;;;10.71;100.00;95453.19;5010192;28;19963;-46
2023/09/20 02:57:54;;;;;;;;;;;15.00;61.30;;;10.67;100.00;95457.47;5010749;28;19912;-49
2023/09/20 03:00:27;;;;;;;;;;;15.00;61.40;;;10.67;100.00;95454.00;5006422;28;19909;-48
2023/09/20 03:02:56;;;;;;;;;;;15.00;61.50;;;10.62;100.00;95446.81;5010211;28;19948;-53
2023/09/20 03:05:33;;;;;;;;;;;15.00;61.50;;;10.60;100.00;95449.75;5006944;28;19931;-46
2023/09/20 03:08:11;;;;;;;;;;;14.90;61.50;;;10.58;100.00;95443.88;5009974;28;20301;-51
2023/09/20 03:10:38;;;;;;;;;;;14.90;61.60;;;10.55;100.00;95443.63;5010606;28;19917;-53
2023/09/20 03:13:05;;;;;;;;;;;14.90;61.60;;;10.52;100.00;95444.94;5009457;28;20322;-51
2023/09/20 03:15:32;;;;;;;;;;;14.80;61.60;;;10.52;100.00;95436.16;5010242;28;20047;-53
2023/09/20 03:18:02;;;;;;;;;;;14.80;61.80;;;10.50;100.00;95438.28;5009386;28;20279;-48
2023/09/20 03:20:33;;;;;;;;;;;14.80;61.80;;;10.48;100.00;95438.56;5010287;28;19924;-50
2023/09/20 03:23:05;;;;;;;;;;;14.80;61.90;;;10.46;100.00;95447.88;5009060;28;19909;-48
2023/09/20 03:25:38;;;;;;;;;;;14.80;61.90;;;10.46;100.00;95442.56;5010308;28;20372;-49
2023/09/20 03:28:09;;;;;;;;;;;14.80;62.00;;;10.46;100.00;95446.00;5004001;28;19917;-47
2023/09/20 03:30:39;;;;;;;;;;;14.70;62.00;;;10.45;100.00;95449.75;5008314;28;19952;-50
2023/09/20 03:33:06;;;;;;;;;;;14.70;62.00;;;10.46;100.00;95447.88;5009951;28;19913;-56
2023/09/20 03:35:33;;;;;;;;;;;14.70;62.10;;;10.49;100.00;95444.69;5011167;28;20450;-52
2023/09/20 03:37:59;;;;;;;;;;;14.70;62.20;;;10.51;100.00;95454.00;5004592;28;20050;-51
2023/09/20 03:40:27;;;;;;;;;;;14.70;62.30;;;10.52;100.00;95446.81;5010311;28;20011;-49
2023/09/20 03:42:53;;;;;;;;;;;14.70;62.30;;;10.49;100.00;95450.81;5008522;28;19923;-53
2023/09/20 03:45:20;;;;;;;;;;;14.70;62.30;;;10.50;100.00;95443.59;5010276;28;19945;-48
2023/09/20 03:47:56;;;;;;;;;;;14.70;62.40;;;10.48;100.00;95445.75;5004910;28;19909;-47
2023/09/20 03:50:23;;;;;;;;;;;14.70;62.40;;;10.46;100.00;95442.56;5008940;28;19909;-52
2023/09/20 03:52:49;;;;;;;;;;;14.70;62.40;;;10.43;100.00;95441.22;5008174;28;19966;-53
2023/09/20 03:55:16;;;;;;;;;;;14.70;62.40;;;10.40;100.00;95439.09;5008924;28;19911;-52
2023/09/20 03:57:42;;;;;;;;;;;14.70;62.50;;;10.38;100.00;95439.38;5001684;28;20364;-54
2023/09/20 04:00:25;;;;;;;;;;;14.70;62.50;;;10.36;100.00;95430.03;5012487;28;19999;-49
2023/09/20 04:02:54;;;;;;;;;;;14.60;62.40;;;10.32;100.00;95432.44;5013203;28;19999;-51
2023/09/20 04:05:20;;;;;;;;;;;14.60;62.50;;;10.31;100.00;95438.84;5003004;28;19995;-53
2023/09/20 04:07:47;;;;;;;;;;;14.60;62.60;;;10.28;100.00;95438.53;5013688;28;20438;-47
2023/09/20 04:10:17;;;;;;;;;;;14.60;62.60;;;10.27;100.00;95439.63;5013598;28;19916;-49
2023/09/20 04:12:47;;;;;;;;;;;14.60;62.60;;;10.26;100.00;95438.81;5011913;28;19909;-50
2023/09/20 04:15:13;;;;;;;;;;;14.60;62.70;;;10.24;100.00;95437.47;4996616;28;19909;-52
2023/09/20 04:17:38;;;;;;;;;;;14.60;62.70;;;10.24;100.00;95440.13;5011750;28;19913;-51
2023/09/20 04:20:07;;;;;;;;;;;14.60;62.80;;;10.23;100.00;95444.66;5009583;28;20000;-52
2023/09/20 04:22:36;;;;;;;;;;;14.50;62.70;;;10.22;100.00;95436.94;5012940;28;20391;-50
2023/09/20 04:25:05;;;;;;;;;;;14.50;62.80;;;10.20;100.00;95427.34;5012248;28;20004;-51
2023/09/20 04:27:31;;;;;;;;;;;14.50;62.90;;;10.22;100.00;95423.63;5013092;28;19913;-53
2023/09/20 04:29:57;;;;;;;;;;;14.50;62.90;;;10.21;100.00;95422.81;5012349;28;19958;-51
2023/09/20 04:32:23;;;;;;;;;;;14.50;63.00;;;10.20;100.00;95402.59;5012612;28;20275;-52
2023/09/20 04:34:52;;;;;;;;;;;14.50;63.00;;;10.20;100.00;95407.91;5012285;28;19962;-49
2023/09/20 04:37:19;;;;;;;;;;;14.50;63.10;;;10.19;100.00;95409.00;5012978;28;20319;-52
2023/09/20 04:39:45;;;;;;;;;;;14.50;63.10;;;10.17;100.00;95408.44;5013118;28;19948;-49
2023/09/20 04:42:12;;;;;;;;;;;14.50;63.20;;;10.17;100.00;95405.78;5011598;28;19921;-52
2023/09/20 04:44:39;;;;;;;;;;;14.50;63.30;;;10.16;100.00;95412.97;5012846;28;20279;-51
2023/09/20 04:47:04;;;;;;;;;;;14.50;63.30;;;10.16;100.00;95420.97;5012070;28;19912;-50
2023/09/20 04:49:30;;;;;;;;;;;14.50;63.30;;;10.15;100.00;95421.22;5012565;28;20368;-50
2023/09/20 04:52:00;;;;;;;;;;;14.40;63.20;;;10.12;100.00;95419.06;5012462;28;20360;-51
2023/09/20 04:54:27;;;;;;;;;;;14.40;63.30;;;10.12;100.00;95429.72;5011543;28;19913;-49
2023/09/20 04:56:53;;;;;;;;;;;14.40;63.30;;;10.09;100.00;95409.78;5012743;28;19959;-51
2023/09/20 04:59:19;;;;;;;;;;;14.40;63.30;;;10.09;100.00;95411.63;5002389;28;19956;-49
2023/09/20 05:01:46;;;;;;;;;;;14.40;63.30;;;10.05;100.00;95397.25;5012239;28;19909;-49
2023/09/20 05:04:13;;;;;;;;;;;14.40;63.40;;;10.11;100.00;95399.66;5011017;28;19971;-49
2023/09/20 05:06:42;;;;;;;;;;;14.40;64.30;;;10.13;100.00;95396.75;5010479;28;20288;-49
2023/09/20 05:09:09;;;;;;;;;;;14.40;63.60;;;10.14;100.00;95399.13;5012497;28;19909;-51
2023/09/20 05:11:35;;;;;;;;;;;14.40;63.60;;;10.14;100.00;95393.78;5006762;28;19909;-49
2023/09/20 05:14:01;;;;;;;;;;;14.50;63.70;;;10.11;100.00;95389.00;5012121;28;20269;-49
2023/09/20 05:16:27;;;;;;;;;;;14.40;63.60;;;10.05;100.00;95390.06;5012289;28;19919;-53
2023/09/20 05:18:53;;;;;;;;;;;14.40;63.50;;;10.02;100.00;95395.91;5015355;28;20382;-53
2023/09/20 05:21:19;;;;;;;;;;;14.50;63.50;;;10.03;100.00;95400.19;5010159;28;19908;-49
2023/09/20 05:23:46;;;;;;;;;;;14.40;63.50;;;10.05;100.00;95397.25;5011123;28;20435;-47
2023/09/20 05:26:11;;;;;;;;;;;14.50;63.60;;;10.04;100.00;95398.34;5012331;28;19952;-47
2023/09/20 05:28:37;;;;;;;;;;;14.50;63.60;;;10.05;100.00;95394.59;5012140;28;20386;-50
2023/09/20 05:31:03;;;;;;;;;;;14.50;63.60;;;10.05;100.00;95400.72;5011490;28;19909;-49
2023/09/20 05:33:30;;;;;;;;;;;14.50;63.70;;;10.08;100.00;95397.53;5011404;28;20039;-52
2023/09/20 05:35:57;;;;;;;;;;;14.50;63.70;;;10.10;100.00;95399.94;5011332;28;20007;-53
2023/09/20 05:38:27;;;;;;;;;;;14.50;63.70;;;10.15;100.00;95397.25;5025064;28;20386;-49
2023/09/20 05:40:53;;;;;;;;;;;14.50;63.70;;;10.24;100.00;95400.19;5011344;28;20283;-48
2023/09/20 05:43:19;;;;;;;;;;;14.50;63.80;;;10.33;100.00;95404.75;5011390;28;19924;-51
2023/09/20 05:45:45;;;;;;;;;;;14.60;63.90;;;10.39;100.00;95389.56;5011400;28;19956;-49
2023/09/20 05:48:11;;;;;;;;;;;14.70;64.00;;;10.40;100.00;95380.50;4997434;28;20384;-50
2023/09/20 05:50:37;;;;;;;;;;;14.70;63.90;;;10.41;100.00;95382.13;5011700;28;19917;-47
2023/09/20 05:53:06;;;;;;;;;;;14.80;63.90;;;10.40;100.00;95376.00;5010556;28;19916;-51
2023/09/20 05:55:39;;;;;;;;;;;14.80;63.90;;;10.47;100.00;95377.59;5025208;28;20012;-49
2023/09/20 05:58:06;;;;;;;;;;;14.90;63.90;;;10.51;100.00;95373.31;5026854;28;19962;-48
2023/09/20 06:00:35;;;;;;;;;;;14.90;64.00;;;10.57;100.00;95374.91;5010401;28;19931;-50
2023/09/20 06:03:04;;;;;;;;;;;15.00;64.00;;;10.61;100.00;95379.41;5010693;28;19912;-48
2023/09/20 06:05:37;;;;;;;;;;;15.00;64.00;;;10.66;100.00;95378.63;5010378;28;19913;-50
2023/09/20 06:08:05;;;;;;;;;;;15.00;63.90;;;10.70;100.00;95370.88;5011374;28;19944;-52
2023/09/20 06:10:32;;;;;;;;;;;15.10;63.90;;;10.70;100.00;95378.88;5010977;28;20015;-51
2023/09/20 06:12:57;;;;;;;;;;;15.20;63.90;;;10.75;100.00;95381.50;5009930;28;19909;-49
2023/09/20 06:15:23;;;;;;;;;;;15.20;63.90;;;10.84;100.00;95379.91;5011242;28;19915;-50
2023/09/20 06:17:49;;;;;;;;;;;15.30;64.00;;;10.94;100.00;95385.22;5010437;28;19909;-53
2023/09/20 06:20:19;;;;;;;;;;;15.30;64.00;;;11.02;100.00;95386.50;5011411;28;19912;-54
2023/09/20 06:22:48;;;;;;;;;;;15.40;64.10;;;11.11;100.00;95383.00;5001920;28;20415;-49
2023/09/20 06:25:15;;;;;;;;;;;15.50;64.20;;;11.18;100.00;95387.25;5010917;28;19960;-51
2023/09/20 06:27:41;;;;;;;;;;;15.60;64.20;;;11.20;100.00;95377.91;5011031;28;19995;-50
2023/09/20 06:30:14;;;;;;;;;;;15.60;64.90;;;11.30;100.00;95369.06;5010368;28;20383;-49
2023/09/20 06:32:44;;;;;;;;;;;15.70;64.10;;;11.45;100.00;95368.22;5010718;28;19920;-49
2023/09/20 06:35:12;;;;;;;;;;;15.90;64.10;;;11.68;100.00;95362.19;5010145;28;19924;-50
2023/09/20 06:37:38;;;;;;;;;;;16.10;64.10;;;11.91;100.00;95360.75;5010899;28;19909;-49
2023/09/20 06:40:33;;;;;;;;;;;16.40;64.10;;;12.21;100.00;95364.25;5010655;28;19992;-52
2023/09/20 06:43:00;;;;;;;;;;;16.70;64.00;;;12.61;100.00;95362.31;5009388;28;19921;-46
2023/09/20 06:45:27;;;;;;;;;;;17.20;64.00;;;13.11;100.00;95366.31;5030637;28;19999;-49
2023/09/20 06:47:55;;;;;;;;;;;17.70;64.00;;;13.61;100.00;95368.66;5006288;28;19908;-47
2023/09/20 06:50:21;;;;;;;;;;;18.20;63.90;;;14.06;100.00;95359.16;5025213;28;19916;-48
2023/09/20 06:52:48;;;;;;;;;;;18.70;63.80;;;14.45;100.00;95360.69;5008834;28;20046;-45
2023/09/20 06:55:17;;;;;;;;;;;19.30;63.70;;;14.80;100.00;95353.94;5026505;28;19995;-49
2023/09/20 06:57:43;;;;;;;;;;;19.80;63.40;;;15.24;100.00;95355.22;5030485;28;20371;-49
2023/09/20 07:00:25;;;;;;;;;;;20.40;63.10;;;15.57;100.00;95363.13;5001324;28;20290;-48
2023/09/20 07:02:57;;;;;;;;;;;20.90;62.50;;;15.94;100.00;95358.59;5012882;28;19954;-46
2023/09/20 07:05:27;;;;;;;;;;;21.50;61.80;;;16.32;100.00;95363.63;5016040;28;19913;-50
2023/09/20 07:07:54;;;;;;;;;;;22.00;61.20;;;16.72;100.00;95372.56;5030641;28;19909;-50
2023/09/20 07:10:21;;;;;;;;;;;22.40;60.50;;;17.08;97.33;95364.38;5030048;28;20176;-51
2023/09/20 07:12:49;;;;;;;;;;;22.90;60.00;;;17.46;93.78;95368.47;5024264;28;19909;-48
2023/09/20 07:15:18;;;;;;;;;;;23.30;59.40;;;17.94;94.45;95362.22;5030097;28;19957;-47
2023/09/20 07:17:45;;;;;;;;;;;23.70;59.00;;;18.28;88.20;95358.72;5024723;28;20419;-52
2023/09/20 07:20:17;;;;;;;;;;;24.10;58.60;;;18.63;87.87;95362.16;5026888;28;19963;-52
2023/09/20 07:22:44;;;;;;;;;;;24.50;58.20;;;19.08;81.86;95364.41;5021871;28;19948;-51
2023/09/20 07:25:19;;;;;;;;;;;24.90;58.40;;;19.47;78.95;95364.41;5025784;28;20356;-49
2023/09/20 07:27:47;;;;;;;;;;;25.20;57.40;;;19.80;76.27;95368.03;5030165;28;19955;-48
2023/09/20 07:30:19;;;;;;;;;;;25.60;57.00;;;20.21;74.36;95371.91;5025595;28;20355;-52
2023/09/20 07:32:52;;;;;;;;;;;25.90;56.50;;;20.52;71.74;95368.75;5029797;28;19912;-51
2023/09/20 07:35:26;;;;;;;;;;;26.30;56.10;;;20.71;69.65;95362.06;5029723;28;19963;-52
2023/09/20 07:37:57;;;;;;;;;;;26.60;55.70;;;20.99;68.99;95367.66;5034176;28;19917;-48
2023/09/20 07:40:30;;;;;;;;;;;26.90;55.20;;;21.20;67.04;95365.66;5033529;28;20432;-52
2023/09/20 07:43:04;;;;;;;;;;;27.10;54.60;;;21.30;67.26;95361.69;5028888;28;19917;-52
2023/09/20 07:45:41;;;;;;;;;;;27.40;54.30;;;21.53;66.03;95364.78;5033747;28;19999;-52
2023/09/20 07:48:12;;;;;;;;;;;27.60;53.90;;;21.92;64.10;95365.19;5028416;28;20330;-51
2023/09/20 07:50:49;;;;;;;;;;;27.90;53.70;;;21.86;63.46;95363.84;5033069;28;20003;-50
2023/09/20 07:53:20;;;;;;;;;;;28.10;53.30;;;21.92;63.57;95363.25;5028849;28;20238;-51
2023/09/20 07:56:05;;;;;;;;;;;28.30;53.00;;;21.84;63.08;95361.50;5027588;28;19916;-50
2023/09/20 07:58:32;;;;;;;;;;;28.50;52.60;;;22.13;61.96;95354.19;5033541;28;19912;-50
2023/09/20 08:00:59;;;;;;;;;;;28.70;52.30;;;22.34;61.19;95349.41;5029411;28;19909;-49
2023/09/20 08:03:28;;;;;;;;;;;28.80;52.00;;;22.61;59.85;95357.84;5028321;28;20039;-50
2023/09/20 08:05:55;;;;;;;;;;;29.10;51.90;;;22.74;59.71;95350.44;5024357;28;19908;-49
2023/09/20 08:08:21;;;;;;;;;;;29.30;51.60;;;23.18;58.60;95353.91;5033285;28;19962;-50
2023/09/20 08:10:48;;;;;;;;;;;29.50;51.20;;;23.53;57.30;95347.75;5033315;28;20004;-47
2023/09/20 08:13:14;;;;;;;;;;;29.80;51.00;;;23.62;56.20;95347.56;5028424;28;19951;-48
2023/09/20 08:15:42;;;;;;;;;;;30.00;50.80;;;23.73;55.61;95346.72;5033316;28;19944;-51
2023/09/20 08:20:57;;;;;;;;;;;30.50;50.10;;;24.29;54.14;95344.75;5021287;28;20012;-51
2023/09/20 09:02:16;;;;;;;;;;;33.30;44.90;;;26.73;46.23;95333.78;5032051;28;19916;-55
2023/09/20 09:04:54;;;;;;;;;;;33.40;44.50;;;27.07;46.15;95344.66;5020412;28;19913;-56
2023/09/20 09:07:24;;;;;;;;;;;33.50;44.50;;;26.96;45.55;95337.16;5030599;28;19912;-50
2023/09/20 09:09:52;;;;;;;;;;;33.70;44.30;;;27.17;46.43;95333.88;5002477;28;19979;-54
2023/09/20 09:12:18;;;;;;;;;;;33.80;43.80;;;27.45;44.66;95336.06;5022322;28;19926;-55
2023/09/20 09:14:48;;;;;;;;;;;33.90;43.70;;;27.51;44.79;95336.47;5032069;28;19952;-54
2023/09/20 09:17:14;;;;;;;;;;;34.10;43.50;;;27.40;44.43;95330.94;5027951;28;19921;-55
2023/09/20 09:19:41;;;;;;;;;;;34.10;43.20;;;27.63;45.11;95329.91;5029286;28;19935;-56
2023/09/20 09:22:07;;;;;;;;;;;34.30;42.90;;;27.83;43.66;95328.53;5031551;28;20332;-54
2023/09/20 09:24:48;;;;;;;;;;;34.40;42.80;;;27.37;44.74;95320.75;5027931;28;19912;-55
2023/09/20 09:27:15;;;;;;;;;;;34.50;42.60;;;27.17;44.52;95320.22;5033455;28;19908;-52
2023/09/20 09:29:46;;;;;;;;;;;34.50;42.20;;;27.53;44.63;95322.44;5025682;28;19913;-51
2023/09/20 09:32:13;;;;;;;;;;;34.60;42.10;;;27.72;43.09;95324.13;5032935;28;20442;-50
2023/09/20 09:34:41;;;;;;;;;;;34.60;41.90;;;27.81;43.41;95313.66;4985855;28;20294;-51
2023/09/20 09:37:08;;;;;;;;;;;34.70;41.80;;;27.97;43.28;95310.59;5027052;28;19915;-51
2023/09/20 09:39:36;;;;;;;;;;;34.90;41.80;;;27.82;42.17;95301.53;5031028;28;19913;-53
2023/09/20 09:42:02;;;;;;;;;;;35.00;41.60;;;27.98;41.52;95303.97;5026121;28;19947;-52
2023/09/20 09:44:28;;;;;;;;;;;35.10;41.40;;;28.34;41.84;95302.94;5012059;28;19968;-55
2023/09/20 09:46:55;;;;;;;;;;;35.20;41.20;;;28.57;42.63;95297.16;5030801;28;19916;-50
2023/09/20 09:49:24;;;;;;;;;;;35.40;41.10;;;28.69;41.88;95304.25;4995302;28;19947;-52
2023/09/20 09:51:52;;;;;;;;;;;35.60;41.00;;;28.65;42.23;95297.22;5031049;28;20786;-54
2023/09/20 09:54:21;;;;;;;;;;;35.80;40.80;;;28.79;42.15;95295.25;5026394;28;19913;-53
2023/09/20 09:56:48;;;;;;;;;;;36.00;40.70;;;28.98;39.75;95296.84;5030583;28;19915;-53
2023/09/20 09:59:15;;;;;;;;;;;36.20;40.50;;;29.21;40.49;95290.25;5023146;28;19917;-54
2023/09/20 10:01:44;;;;;;;;;;;36.40;40.20;;;29.37;39.10;95287.09;5030486;28;19916;-53
2023/09/20 10:04:11;;;;;;;;;;;36.60;39.80;;;29.53;39.46;95295.72;5020507;28;19960;-55
2023/09/20 10:07:03;;;;;;;;;;;36.70;39.50;;;29.74;37.71;95292.16;5013451;28;19909;-51
2023/09/20 10:09:38;;;;;;;;;;;36.90;39.30;;;29.95;38.12;95285.84;4988369;28;19936;-55
2023/09/20 10:12:07;;;;;;;;;;;36.90;38.90;;;29.83;38.83;95286.25;5014441;28;19916;-52
2023/09/20 10:14:36;;;;;;;;;;;37.10;38.80;;;29.86;39.15;95282.72;4996509;28;20012;-53
2023/09/20 10:17:08;;;;;;;;;;;37.20;38.60;;;30.12;37.49;95286.97;5009925;28;19913;-53
2023/09/20 10:19:39;;;;;;;;;;;37.40;38.40;;;29.92;37.29;95281.13;5011277;28;19936;-49
2023/09/20 10:22:08;;;;;;;;;;;37.60;38.20;;;30.08;38.51;95284.22;5010835;28;20020;-52
2023/09/20 10:24:50;;;;;;;;;;;37.80;38.00;;;30.34;37.62;95279.44;5005635;28;19915;-53
2023/09/20 10:27:21;;;;;;;;;;;37.90;37.70;;;30.28;37.02;95272.81;5012875;28;20449;-54
2023/09/20 10:29:58;;;;;;;;;;;38.00;37.50;;;30.09;37.46;95268.53;5007642;28;20004;-56
2023/09/20 10:32:32;;;;;;;;;;;38.20;37.30;;;30.21;38.44;95270.88;5010831;28;20362;-53
2023/09/20 10:35:19;;;;;;;;;;;38.20;37.10;;;30.39;36.65;95270.78;5010102;28;19913;-55
2023/09/20 10:38:04;;;;;;;;;;;38.40;37.00;;;30.45;37.03;95265.66;5005071;28;19916;-55
2023/09/20 10:40:45;;;;;;;;;;;38.50;36.80;;;30.57;36.81;95256.94;5011040;28;20129;-56
2023/09/20 10:43:13;;;;;;;;;;;38.60;36.50;;;29.89;37.97;95249.00;5009009;28;19925;-54
2023/09/20 10:45:39;;;;;;;;;;;38.70;36.40;;;30.12;37.11;95246.56;5010559;28;20050;-56
2023/09/20 10:48:12;;;;;;;;;;;38.70;36.30;;;30.35;38.11;95250.78;5009848;28;19912;-56
2023/09/20 10:51:05;;;;;;;;;;;38.70;36.10;;;30.55;37.47;95249.09;5010802;28;19909;-56
2023/09/20 10:53:46;;;;;;;;;;;38.70;36.10;;;30.55;37.52;95246.34;5007076;28;20010;-56
2023/09/20 10:56:53;;;;;;;;;;;38.80;36.00;;;30.53;36.99;95245.97;5006486;28;19913;-58
2023/09/20 10:59:27;;;;;;;;;;;38.90;35.90;;;31.00;37.17;95240.97;5009386;28;19909;-56
2023/09/20 11:01:59;;;;;;;;;;;39.10;35.80;;;30.98;36.54;95237.06;5010406;28;19992;-56
2023/09/20 11:04:25;;;;;;;;;;;39.20;35.20;;;31.04;35.70;95227.97;5010511;28;19909;-56
2023/09/20 11:06:53;;;;;;;;;;;39.20;34.50;;;31.17;35.39;95232.97;5008174;28;19909;-50
2023/09/20 11:09:23;;;;;;;;;;;39.20;34.30;;;31.03;36.28;95233.88;5014960;28;20330;-56
2023/09/20 11:11:53;;;;;;;;;;;39.10;34.30;;;30.46;35.88;95231.50;5013473;28;19916;-56
2023/09/20 11:14:19;;;;;;;;;;;39.20;34.40;;;30.72;36.47;95228.19;5014682;28;19967;-56
2023/09/20 11:16:44;;;;;;;;;;;39.20;34.20;;;30.90;36.53;95228.09;5011517;28;19913;-51
2023/09/20 11:19:12;;;;;;;;;;;39.40;34.30;;;31.05;35.68;95215.78;5013580;28;19988;-54
2023/09/20 11:21:42;;;;;;;;;;;39.60;34.20;;;31.38;36.19;95216.31;5018938;28;19917;-56
2023/09/20 11:24:10;;;;;;;;;;;39.70;34.00;;;31.53;35.75;95214.19;5014799;28;19916;-55
2023/09/20 11:26:39;;;;;;;;;;;39.80;33.60;;;31.86;33.82;95206.34;5026928;28;20008;-56
2023/09/20 11:29:05;;;;;;;;;;;39.80;33.50;;;31.91;34.15;95208.69;5026675;28;20004;-54
2023/09/20 11:31:35;;;;;;;;;;;40.00;33.50;;;32.09;34.47;95202.94;5027927;28;19924;-56
2023/09/20 11:34:03;;;;;;;;;;;40.20;33.40;;;32.05;33.88;95204.97;5024327;28;19920;-47
2023/09/20 11:36:44;;;;;;;;;;;40.40;33.30;;;32.22;33.72;95201.22;4999383;28;19995;-47
2023/09/20 11:39:14;;;;;;;;;;;40.50;33.20;;;32.36;33.30;95194.72;5005584;28;19909;-46
2023/09/20 11:41:45;;;;;;;;;;;40.70;33.00;;;32.03;33.17;95203.41;5022213;28;19916;-50
2023/09/20 11:44:12;;;;;;;;;;;40.70;32.80;;;31.96;33.40;95195.22;5024496;28;19920;-47
2023/09/20 11:46:38;;;;;;;;;;;40.70;32.60;;;31.88;33.57;95190.97;5021944;28;20372;-50
2023/09/20 11:49:08;;;;;;;;;;;40.70;32.40;;;32.00;33.58;95201.47;5018543;28;20003;-58
2023/09/20 11:51:36;;;;;;;;;;;40.80;32.20;;;32.14;32.77;95192.25;5024586;28;20299;-49
2023/09/20 11:54:06;;;;;;;;;;;40.80;32.20;;;32.30;31.94;95185.34;5023088;28;19917;-46
2023/09/20 11:56:35;;;;;;;;;;;40.90;32.10;;;32.32;33.08;95181.00;5022161;28;19909;-46
2023/09/20 11:59:06;;;;;;;;;;;41.00;32.00;;;32.65;32.44;95182.09;5018435;28;19913;-46
2023/09/20 12:01:36;;;;;;;;;;;41.20;32.00;;;32.86;32.02;95189.25;5017293;28;19920;-51
2023/09/20 12:04:03;;;;;;;;;;;41.40;31.90;;;33.16;32.74;95179.34;5021918;28;20280;-45